Sharon Valley, Connecticut
Current Conditions -  °F | °C
As of 10:53 PM on Thursday 18 Dec 2014 (Local Time) from KPOU Reporting Station
Overcast Overcast  
Wind Chill: 37°   Ceiling: 3900
Heat Index: 37°   Visibility: 10mi
Dew Point: 26°   Wind: 3mph
Humidity: 65%   Direction: 240°WSW
Pressure: 29.96"   Gusts: NA
Location:  41.8554°N, 73.4421°W
Report Text: KPOU 190353Z AUTO 24003KT 10SM OVC039 03/M03 A2996 RMK AO2 SLP141 T00281033 TSNO
Loading
Personal Weather Stations






























Interactive Weather Map New forecast layout! Learn more

10-Day Weather Forecast

Advertisements
Track Severe Weather on mobile